createdAt,value
2018-12-17T00:00:39.809Z,100140.88
2018-12-17T00:03:14.434Z,100142.67
2018-12-17T00:05:51.931Z,100140.60
2018-12-17T00:08:31.976Z,100157.56
2018-12-17T00:11:05.345Z,100169.00
2018-12-17T00:13:44.322Z,100158.28
2018-12-17T00:16:16.649Z,100160.55
2018-12-17T00:18:48.309Z,100156.81
2018-12-17T00:21:25.319Z,100163.03
2018-12-17T00:24:00.440Z,100164.03
2018-12-17T00:26:32.759Z,100179.05
2018-12-17T00:29:09.642Z,100182.25
2018-12-17T00:31:41.103Z,100187.79
2018-12-17T00:34:12.605Z,100187.45
2018-12-17T00:36:52.646Z,100197.39
2018-12-17T00:39:27.756Z,100196.02
2018-12-17T00:42:03.960Z,100194.88
2018-12-17T00:44:39.185Z,100196.98
2018-12-17T00:47:13.663Z,100209.00
2018-12-17T00:49:48.571Z,100219.38
2018-12-17T00:52:19.936Z,100219.77
2018-12-17T00:54:51.597Z,100203.18
2018-12-17T00:57:23.165Z,100197.16
2018-12-17T01:00:03.669Z,100210.76
2018-12-17T01:02:42.138Z,100224.08
2018-12-17T01:05:13.586Z,100223.73
2018-12-17T01:07:50.596Z,100205.91
2018-12-17T01:10:34.173Z,100200.98
2018-12-17T01:13:11.551Z,100207.05
2018-12-17T01:15:53.383Z,100217.95
2018-12-17T01:18:30.319Z,100214.77
2018-12-17T01:21:08.958Z,100209.63
2018-12-17T01:23:40.636Z,100209.67
2018-12-17T01:26:16.055Z,100216.70
2018-12-17T01:28:50.594Z,100211.52
2018-12-17T01:31:22.196Z,100217.67
2018-12-17T01:33:53.587Z,100228.27
2018-12-17T01:36:26.465Z,100224.49
2018-12-17T01:38:58.405Z,100224.41
2018-12-17T01:41:31.258Z,100239.30
2018-12-17T01:44:02.824Z,100246.36
2018-12-17T01:46:34.564Z,100238.87
2018-12-17T01:49:06.329Z,100238.83
2018-12-17T01:51:37.867Z,100233.97
2018-12-17T01:54:09.287Z,100245.66
2018-12-17T01:56:41.468Z,100250.25
2018-12-17T01:59:13.177Z,100253.27
2018-12-17T02:01:44.789Z,100250.76
2018-12-17T02:04:16.333Z,100255.39
2018-12-17T02:06:48.103Z,100259.19
2018-12-17T02:09:19.883Z,100272.14
2018-12-17T02:11:51.265Z,100282.39
2018-12-17T02:14:22.769Z,100270.30
2018-12-17T02:16:55.125Z,100269.34
2018-12-17T02:19:26.495Z,100282.19
2018-12-17T02:21:58.007Z,100290.00
2018-12-17T02:24:29.375Z,100277.70
2018-12-17T02:27:00.970Z,100282.50
2018-12-17T02:29:32.449Z,100291.16
2018-12-17T02:32:04.301Z,100292.02
2018-12-17T02:34:36.770Z,100289.08
2018-12-17T02:37:08.450Z,100290.20
2018-12-17T02:39:40.516Z,100291.34
2018-12-17T02:42:12.475Z,100290.00
2018-12-17T02:44:43.844Z,100274.37
2018-12-17T02:47:15.431Z,100269.88
2018-12-17T02:49:46.888Z,100280.78
2018-12-17T02:52:18.347Z,100300.31
2018-12-17T02:54:50.169Z,100296.34
2018-12-17T02:57:22.481Z,100308.06
2018-12-17T02:59:53.955Z,100314.09
2018-12-17T03:02:25.718Z,100323.40
2018-12-17T03:04:57.874Z,100323.28
2018-12-17T03:07:29.626Z,100329.09
2018-12-17T03:10:02.376Z,100326.01
2018-12-17T03:12:35.926Z,100330.95
2018-12-17T03:15:08.367Z,100342.04
2018-12-17T03:17:40.245Z,100336.61
2018-12-17T03:20:13.003Z,100331.84
2018-12-17T03:22:45.015Z,100341.75
2018-12-17T03:25:16.677Z,100341.02
2018-12-17T03:27:48.067Z,100339.81
2018-12-17T03:30:19.383Z,100332.10
2018-12-17T03:32:50.925Z,100335.40
2018-12-17T03:35:22.292Z,100326.28
2018-12-17T03:37:54.919Z,100323.20
2018-12-17T03:40:27.031Z,100334.34
2018-12-17T03:42:58.512Z,100335.05
2018-12-17T03:45:29.948Z,100346.00
2018-12-17T03:48:01.378Z,100353.04
2018-12-17T03:50:32.813Z,100361.71
2018-12-17T03:53:04.199Z,100367.05
2018-12-17T03:55:35.904Z,100372.92
2018-12-17T03:58:07.413Z,100377.94
2018-12-17T04:00:38.793Z,100382.16
2018-12-17T04:03:10.527Z,100376.46
2018-12-17T04:05:42.460Z,100378.18
2018-12-17T04:08:14.352Z,100369.57
2018-12-17T04:10:46.064Z,100362.54
2018-12-17T04:13:18.715Z,100378.73
2018-12-17T04:15:50.215Z,100382.91
2018-12-17T04:18:22.510Z,100382.53
2018-12-17T04:20:54.211Z,100363.98
2018-12-17T04:23:25.983Z,100361.55
2018-12-17T04:25:59.726Z,100372.17
2018-12-17T04:28:31.630Z,100356.30
2018-12-17T04:31:02.902Z,100357.39
2018-12-17T04:33:35.091Z,100351.16
2018-12-17T04:36:06.471Z,100352.80
2018-12-17T04:38:38.020Z,100353.89
2018-12-17T04:41:09.799Z,100351.50
2018-12-17T04:43:41.251Z,100358.66
2018-12-17T04:46:12.660Z,100362.67
2018-12-17T04:48:44.284Z,100362.03
2018-12-17T04:51:15.545Z,100364.66
2018-12-17T04:53:46.927Z,100364.25
2018-12-17T04:56:18.300Z,100367.89
2018-12-17T04:58:49.877Z,100357.70
2018-12-17T05:01:21.389Z,100345.08
2018-12-17T05:03:52.967Z,100342.06
2018-12-17T05:06:25.066Z,100347.88
2018-12-17T05:08:56.886Z,100336.38
2018-12-17T05:11:28.830Z,100322.17
2018-12-17T05:14:01.121Z,100318.76
2018-12-17T05:16:32.456Z,100327.23
2018-12-17T05:19:04.073Z,100323.33
2018-12-17T05:21:36.124Z,100309.36
2018-12-17T05:24:07.731Z,100294.28
2018-12-17T05:26:39.270Z,100294.50
2018-12-17T05:29:11.475Z,100301.47
2018-12-17T05:31:43.012Z,100297.56
2018-12-17T05:34:15.377Z,100295.29
2018-12-17T05:36:47.176Z,100303.08
2018-12-17T05:39:19.095Z,100301.13
2018-12-17T05:41:51.708Z,100294.68
2018-12-17T05:44:23.975Z,100282.11
2018-12-17T05:46:55.864Z,100281.06
2018-12-17T05:49:28.009Z,100276.14
2018-12-17T05:52:03.561Z,100274.99
2018-12-17T05:54:39.278Z,100276.89
2018-12-17T05:57:12.936Z,100274.28
2018-12-17T05:59:48.762Z,100275.58
2018-12-17T06:02:23.804Z,100275.39
2018-12-17T06:05:00.361Z,100263.36
2018-12-17T06:07:35.402Z,100254.42
2018-12-17T06:10:09.625Z,100254.72
2018-12-17T06:12:43.147Z,100262.58
2018-12-17T06:15:17.999Z,100247.55
2018-12-17T06:17:52.840Z,100233.25
2018-12-17T06:20:27.905Z,100218.91
2018-12-17T06:23:02.656Z,100219.22
2018-12-17T06:25:34.538Z,100211.67
2018-12-17T06:28:06.274Z,100210.17
2018-12-17T06:30:39.519Z,100212.25
2018-12-17T06:33:15.706Z,100207.25
2018-12-17T06:35:48.508Z,100199.14
2018-12-17T06:38:22.573Z,100193.75
2018-12-17T06:41:00.570Z,100195.75
2018-12-17T06:43:33.170Z,100175.78
2018-12-17T06:46:15.047Z,100175.18
2018-12-17T06:48:47.552Z,100184.45
2018-12-17T06:51:23.135Z,100184.05
2018-12-17T06:53:54.733Z,100176.28
2018-12-17T06:56:26.801Z,100176.28
2018-12-17T06:58:58.461Z,100168.41
2018-12-17T07:01:33.944Z,100157.36
2018-12-17T07:04:12.786Z,100144.81
2018-12-17T07:06:44.477Z,100129.86
2018-12-17T07:09:16.472Z,100122.14
2018-12-17T07:11:48.556Z,100126.45
2018-12-17T07:14:20.431Z,100115.28
2018-12-17T07:16:52.034Z,100110.11
2018-12-17T07:19:24.895Z,100096.25
2018-12-17T07:21:56.566Z,100100.85
2018-12-17T07:24:27.909Z,100088.78
2018-12-17T07:26:59.505Z,100085.28
2018-12-17T07:29:31.090Z,100077.00
2018-12-17T07:32:04.792Z,100057.54
2018-12-17T07:34:38.300Z,100043.55
2018-12-17T07:37:10.753Z,100056.72
2018-12-17T07:39:42.398Z,100054.20
2018-12-17T07:42:16.115Z,100058.58
2018-12-17T07:44:48.418Z,100055.06
2018-12-17T07:47:20.048Z,100043.90
2018-12-17T07:49:52.571Z,100038.14
2018-12-17T07:52:25.427Z,100037.24
2018-12-17T07:54:57.515Z,100036.12
2018-12-17T07:57:30.795Z,100035.67
2018-12-17T08:00:08.920Z,100024.09
2018-12-17T08:02:41.008Z,100007.48
2018-12-17T08:05:12.554Z,100012.66
2018-12-17T08:07:44.785Z,100026.02
2018-12-17T08:10:16.238Z,100027.69
2018-12-17T08:12:52.616Z,100020.66
2018-12-17T08:15:24.614Z,100016.97
2018-12-17T08:18:34.782Z,100025.88
2018-12-17T08:21:07.488Z,100034.98
2018-12-17T08:23:40.100Z,100036.64
2018-12-17T08:26:15.356Z,100038.67
2018-12-17T08:28:53.756Z,100046.81
2018-12-17T08:31:25.704Z,100036.80
2018-12-17T08:34:02.429Z,100022.88
2018-12-17T08:36:36.134Z,100017.23
2018-12-17T08:39:09.121Z,100018.48
2018-12-17T08:41:41.048Z,100010.48
2018-12-17T08:44:13.459Z,100016.73
2018-12-17T08:46:49.870Z,100008.67
2018-12-17T08:49:21.935Z,100005.56
2018-12-17T08:51:53.540Z,100001.05
2018-12-17T08:54:25.701Z,100004.52
2018-12-17T08:56:59.683Z,100005.47
2018-12-17T08:59:33.564Z,99995.33
2018-12-17T09:02:11.032Z,99988.85
2018-12-17T09:07:40.395Z,99982.38
2018-12-17T09:10:12.107Z,99980.94
2018-12-17T09:12:43.800Z,99976.36
2018-12-17T09:15:16.565Z,99976.91
2018-12-17T09:17:48.581Z,99966.92
2018-12-17T09:20:20.324Z,99966.86
2018-12-17T09:22:53.430Z,99964.30
2018-12-17T09:25:25.252Z,99963.50
2018-12-17T09:27:57.630Z,99965.11
2018-12-17T09:30:33.031Z,99976.38
2018-12-17T09:33:07.886Z,99969.48
2018-12-17T09:35:39.507Z,99966.67
2018-12-17T09:38:11.069Z,99968.22
2018-12-17T09:40:44.475Z,99961.98
2018-12-17T09:43:16.284Z,99951.23
2018-12-17T09:45:48.040Z,99958.09
2018-12-17T09:48:20.119Z,99954.06
2018-12-17T09:50:51.856Z,99963.86
2018-12-17T09:53:24.680Z,99965.22
2018-12-17T09:55:56.273Z,99962.25
2018-12-17T09:58:29.227Z,99960.95
2018-12-17T10:01:12.253Z,99962.41
2018-12-17T10:03:48.274Z,99954.57
2018-12-17T10:06:20.438Z,99953.91
2018-12-17T10:08:54.895Z,99954.02
2018-12-17T10:11:26.354Z,99957.19
2018-12-17T10:13:58.241Z,99960.34
2018-12-17T10:16:30.595Z,99953.80
2018-12-17T10:19:02.741Z,99951.25
2018-12-17T10:21:37.719Z,99950.20
2018-12-17T10:24:09.865Z,99939.25
2018-12-17T10:26:41.731Z,99932.83
2018-12-17T10:29:14.474Z,99937.09
2018-12-17T10:31:46.487Z,99946.88
2018-12-17T10:34:18.153Z,99948.03
2018-12-17T10:36:49.648Z,99951.41
2018-12-17T10:39:23.215Z,99941.95
2018-12-17T10:41:54.998Z,99947.13
2018-12-17T10:44:28.659Z,99952.16
2018-12-17T10:47:03.633Z,99952.34
2018-12-17T10:49:35.927Z,99953.52
2018-12-17T10:52:17.325Z,99953.91
2018-12-17T10:54:49.225Z,99951.36
2018-12-17T10:57:28.900Z,99953.80
2018-12-17T11:00:00.850Z,99956.88
2018-12-17T11:02:35.771Z,99957.78
2018-12-17T11:05:14.107Z,99956.42
2018-12-17T11:07:45.698Z,99957.83
2018-12-17T11:10:18.061Z,99958.63
2018-12-17T11:12:49.920Z,99959.94
2018-12-17T11:15:21.404Z,99963.05
2018-12-17T11:18:03.107Z,99958.17
2018-12-17T11:20:35.424Z,99956.98
2018-12-17T11:23:12.366Z,99963.05
2018-12-17T11:25:44.576Z,99960.50
2018-12-17T11:28:17.205Z,99959.34
2018-12-17T11:30:52.062Z,99965.88
2018-12-17T11:33:23.868Z,99953.36
2018-12-17T11:35:56.331Z,99944.45
2018-12-17T11:38:33.838Z,99945.36
2018-12-17T11:41:14.996Z,99945.30
2018-12-17T11:43:50.813Z,99949.13
2018-12-17T11:46:22.797Z,99947.06
2018-12-17T11:49:00.658Z,99939.90
2018-12-17T11:51:33.227Z,99939.30
2018-12-17T11:54:05.162Z,99939.68
2018-12-17T11:58:45.743Z,99948.68
2018-12-17T12:01:20.571Z,99960.19
2018-12-17T12:03:52.449Z,99962.95
2018-12-17T12:06:24.051Z,99962.84
2018-12-17T12:08:55.846Z,99961.03
2018-12-17T12:11:29.307Z,99968.68
2018-12-17T12:14:01.849Z,99972.28
2018-12-17T12:16:35.154Z,99980.43
2018-12-17T12:19:07.121Z,99987.86
2018-12-17T12:21:39.925Z,99980.27
2018-12-17T12:24:11.479Z,99977.66
2018-12-17T12:26:43.327Z,99981.89
2018-12-17T12:29:16.453Z,99989.36
2018-12-17T12:31:48.127Z,99990.72
2018-12-17T12:34:19.741Z,99989.86
2018-12-17T12:36:51.634Z,99997.91
2018-12-17T12:39:23.485Z,100009.50
2018-12-17T12:41:55.178Z,100009.83
2018-12-17T12:44:26.750Z,100014.48
2018-12-17T12:47:01.781Z,100017.79
2018-12-17T12:49:33.353Z,100020.11
2018-12-17T12:52:05.383Z,100025.57
2018-12-17T12:54:37.230Z,100026.47
2018-12-17T12:57:08.857Z,100029.84
2018-12-17T12:59:41.539Z,100034.77
2018-12-17T13:02:13.253Z,100030.74
2018-12-17T13:04:44.604Z,100025.73
2018-12-17T13:07:16.791Z,100020.61
2018-12-17T13:09:48.715Z,100016.98
2018-12-17T13:12:20.391Z,100018.02
2018-12-17T13:14:51.662Z,100023.30
2018-12-17T13:17:29.790Z,100037.66
2018-12-17T13:20:01.268Z,100035.40
2018-12-17T13:22:33.579Z,100043.41
2018-12-17T13:25:06.577Z,100052.70
2018-12-17T13:27:38.416Z,100056.12
2018-12-17T13:30:11.309Z,100063.20
2018-12-17T13:32:43.239Z,100067.64
2018-12-17T13:35:14.947Z,100067.24
2018-12-17T13:37:46.366Z,100070.53
2018-12-17T13:40:17.624Z,100071.56
2018-12-17T13:42:49.819Z,100078.80
2018-12-17T13:45:28.116Z,100066.95
2018-12-17T13:48:03.260Z,100065.55
2018-12-17T13:50:39.567Z,100068.96
2018-12-17T13:53:20.138Z,100069.08
2018-12-17T13:55:55.400Z,100066.48
2018-12-17T13:58:28.812Z,100073.48
2018-12-17T14:01:03.998Z,100078.79
2018-12-17T14:03:45.800Z,100081.96
2018-12-17T14:06:18.380Z,100080.70
2018-12-17T14:08:54.912Z,100086.00
2018-12-17T14:11:31.768Z,100088.48
2018-12-17T14:14:06.656Z,100091.22
2018-12-17T14:16:45.798Z,100094.02
2018-12-17T14:19:23.337Z,100105.42
2018-12-17T14:22:03.618Z,100104.84
2018-12-17T14:24:40.513Z,100107.53
2018-12-17T14:27:12.000Z,100103.95
2018-12-17T14:29:43.624Z,100096.88
2018-12-17T14:32:15.030Z,100097.64
2018-12-17T14:34:49.770Z,100104.24
2018-12-17T14:37:21.721Z,100107.45
2018-12-17T14:39:54.369Z,100113.67
2018-12-17T14:42:27.954Z,100115.06
2018-12-17T14:45:04.769Z,100112.16
2018-12-17T14:47:40.183Z,100107.61
2018-12-17T14:50:16.524Z,100114.45
2018-12-17T14:52:53.103Z,100123.36
2018-12-17T14:55:28.365Z,100130.07
2018-12-17T14:58:00.026Z,100127.38
2018-12-17T15:00:33.551Z,100128.98
2018-12-17T15:03:11.937Z,100127.19
2018-12-17T15:05:45.640Z,100138.80
2018-12-17T15:08:17.021Z,100139.81
2018-12-17T15:11:03.685Z,100138.22
2018-12-17T15:13:37.191Z,100146.56
2018-12-17T15:16:12.170Z,100145.30
2018-12-17T15:21:51.324Z,100139.00
2018-12-17T15:24:30.017Z,100141.12
2018-12-17T15:27:03.927Z,100148.04
2018-12-17T15:29:39.109Z,100151.12
2018-12-17T15:32:15.616Z,100142.83
2018-12-17T15:34:47.091Z,100134.19
2018-12-17T15:37:19.119Z,100139.73
2018-12-17T15:39:50.541Z,100146.03
2018-12-17T15:42:22.198Z,100148.45
2018-12-17T15:44:53.605Z,100149.84
2018-12-17T15:47:26.187Z,100148.42
2018-12-17T15:50:02.184Z,100143.47
2018-12-17T15:52:39.188Z,100130.89
2018-12-17T15:55:19.228Z,100132.19
2018-12-17T15:58:00.929Z,100140.60
2018-12-17T16:00:41.297Z,100133.88
2018-12-17T16:03:12.826Z,100142.88
2018-12-17T16:05:44.268Z,100145.89
2018-12-17T16:08:15.624Z,100149.50
2018-12-17T16:10:47.060Z,100163.98
2018-12-17T16:13:22.606Z,100160.00
2018-12-17T16:15:53.946Z,100164.42
2018-12-17T16:18:25.407Z,100158.95
2018-12-17T16:20:56.900Z,100151.95
2018-12-17T16:23:28.391Z,100146.38
2018-12-17T16:25:59.757Z,100141.95
2018-12-17T16:28:31.861Z,100151.47
2018-12-17T16:31:04.393Z,100152.48
2018-12-17T16:33:35.950Z,100150.32
2018-12-17T16:36:08.391Z,100150.09
2018-12-17T16:38:43.756Z,100147.19
2018-12-17T16:41:15.181Z,100154.41
2018-12-17T16:43:47.647Z,100163.52
2018-12-17T16:46:22.753Z,100167.77
2018-12-17T16:48:54.258Z,100153.92
2018-12-17T16:51:31.862Z,100141.83
2018-12-17T16:54:06.799Z,100144.33
2018-12-17T16:56:39.156Z,100157.02
2018-12-17T16:59:20.602Z,100159.31
2018-12-17T17:01:52.033Z,100159.46
2018-12-17T17:04:27.274Z,100157.72
2018-12-17T17:07:00.733Z,100154.73
2018-12-17T17:09:32.289Z,100155.14
2018-12-17T17:12:04.619Z,100161.31
2018-12-17T17:14:37.303Z,100172.76
2018-12-17T17:17:08.730Z,100184.95
2018-12-17T17:19:50.668Z,100178.11
2018-12-17T17:22:18.761Z,100177.22
2018-12-17T17:24:55.157Z,100189.44
2018-12-17T17:27:26.668Z,100191.02
2018-12-17T17:29:58.633Z,100189.17
2018-12-17T17:32:30.082Z,100186.97
2018-12-17T17:35:01.833Z,100184.27
2018-12-17T17:37:37.532Z,100180.47
2018-12-17T17:40:10.229Z,100180.95
2018-12-17T17:42:41.619Z,100183.58
2018-12-17T17:45:13.100Z,100180.84
2018-12-17T17:47:44.609Z,100177.76
2018-12-17T17:50:19.682Z,100181.66
2018-12-17T17:52:52.115Z,100171.80
2018-12-17T17:55:26.850Z,100162.72
2018-12-17T17:57:58.395Z,100158.85
2018-12-17T18:00:36.690Z,100150.30
2018-12-17T18:03:11.815Z,100143.38
2018-12-17T18:05:58.024Z,100139.64
2018-12-17T18:08:29.257Z,100133.92
2018-12-17T18:11:00.733Z,100127.94
2018-12-17T18:13:41.420Z,100121.09
2018-12-17T18:16:16.552Z,100124.55
2018-12-17T18:18:53.695Z,100118.93
2018-12-17T18:21:25.227Z,100115.06
2018-12-17T18:23:56.643Z,100109.55
2018-12-17T18:26:32.732Z,100094.08
2018-12-17T18:29:05.915Z,100099.45
2018-12-17T18:31:39.038Z,100101.16
2018-12-17T18:34:10.607Z,100093.01
2018-12-17T18:36:52.461Z,100100.44
2018-12-17T18:39:27.065Z,100098.73
2018-12-17T18:42:00.514Z,100100.44
2018-12-17T18:44:32.009Z,100090.06
2018-12-17T18:47:04.497Z,100088.80
2018-12-17T18:49:37.967Z,100081.92
2018-12-17T18:52:10.327Z,100084.25
2018-12-17T18:57:22.850Z,100082.17
2018-12-17T18:59:54.148Z,100084.36
2018-12-17T19:02:33.215Z,100079.33
2018-12-17T19:05:10.552Z,100080.19
2018-12-17T19:10:14.038Z,100064.91
2018-12-17T19:12:46.773Z,100059.23
2018-12-17T19:15:18.204Z,100056.94
2018-12-17T19:18:04.507Z,100066.45
2018-12-17T19:20:40.257Z,100064.02
2018-12-17T19:23:18.275Z,100060.05
2018-12-17T19:25:49.756Z,100048.34
2018-12-17T19:28:22.226Z,100040.53
2018-12-17T19:31:02.275Z,100038.72
2018-12-17T19:33:39.025Z,100037.70
2018-12-17T19:36:19.758Z,100035.00
2018-12-17T19:38:56.140Z,100028.08
2018-12-17T19:41:34.292Z,100025.17
2018-12-17T19:44:12.072Z,100024.88
2018-12-17T19:46:47.067Z,100019.67
2018-12-17T19:49:19.743Z,100017.14
2018-12-17T19:51:51.193Z,100011.76
2018-12-17T19:54:27.896Z,100015.16
2018-12-17T19:57:02.679Z,100017.14
2018-12-17T19:59:34.273Z,100014.61
2018-12-17T20:02:12.911Z,100012.59
2018-12-17T20:04:56.480Z,100013.89
2018-12-17T20:07:28.081Z,100012.59
2018-12-17T20:10:00.649Z,100015.38
2018-12-17T20:12:38.795Z,100010.75
2018-12-17T20:15:12.357Z,100010.92
2018-12-17T20:17:50.071Z,99998.67
2018-12-17T20:20:25.276Z,99999.73
2018-12-17T20:26:05.177Z,99993.92
2018-12-17T20:28:43.633Z,99984.79
2018-12-17T20:31:24.766Z,99977.57
2018-12-17T20:34:08.819Z,99978.12
2018-12-17T20:36:51.718Z,99972.45
2018-12-17T20:39:28.154Z,99975.97
2018-12-17T20:42:09.958Z,99975.55
2018-12-17T20:44:43.695Z,99976.16
2018-12-17T20:47:19.930Z,99982.77
2018-12-17T20:50:02.145Z,99985.77
2018-12-17T20:52:35.765Z,99982.28
2018-12-17T20:55:12.700Z,99978.31
2018-12-17T20:57:44.324Z,99976.20
2018-12-17T21:00:27.838Z,99974.93
2018-12-17T21:03:00.670Z,99976.84
2018-12-17T21:05:38.534Z,99974.30
2018-12-17T21:08:11.558Z,99971.39
2018-12-17T21:10:45.061Z,99971.21
2018-12-17T21:13:21.926Z,99973.52
2018-12-17T21:15:53.387Z,99981.54
2018-12-17T21:18:34.193Z,99974.98
2018-12-17T21:21:05.665Z,99971.56
2018-12-17T21:23:41.255Z,99980.30
2018-12-17T21:26:13.752Z,99966.69
2018-12-17T21:29:01.173Z,99969.59
2018-12-17T21:31:42.620Z,99968.87
2018-12-17T21:34:15.319Z,99968.90
2018-12-17T21:36:47.968Z,99966.91
2018-12-17T21:42:22.818Z,99965.34
2018-12-17T21:47:37.452Z,99962.06
2018-12-17T21:50:13.768Z,99963.70
2018-12-17T21:52:56.826Z,99960.85
2018-12-17T21:55:41.594Z,99957.91
2018-12-17T21:58:14.231Z,99958.45
2018-12-17T22:00:57.750Z,99962.56
2018-12-17T22:06:30.608Z,99963.95
2018-12-17T22:09:05.811Z,99961.45
2018-12-17T22:14:39.413Z,99954.36
2018-12-17T22:17:21.802Z,99957.57
2018-12-17T22:20:05.547Z,99963.15
2018-12-17T22:22:45.685Z,99967.75
2018-12-17T22:25:20.946Z,99967.33
2018-12-17T22:27:56.207Z,99960.43
2018-12-17T22:30:29.256Z,99960.58
2018-12-17T22:33:07.127Z,99958.84
2018-12-17T22:35:41.862Z,99959.44
2018-12-17T22:38:14.342Z,99953.36
2018-12-17T22:40:52.996Z,99948.05
2018-12-17T22:46:35.845Z,99940.97
2018-12-17T22:49:10.635Z,99935.34
2018-12-17T22:51:52.527Z,99928.88
2018-12-17T22:54:26.069Z,99932.66
2018-12-17T22:56:57.340Z,99925.99
2018-12-17T22:59:47.741Z,99925.64
2018-12-17T23:05:47.074Z,99926.49
2018-12-17T23:08:33.337Z,99941.20
2018-12-17T23:11:16.073Z,99942.03
2018-12-17T23:14:02.128Z,99936.38
2018-12-17T23:19:46.483Z,99948.67
2018-12-17T23:25:40.001Z,99958.44
2018-12-17T23:28:22.004Z,99955.98
2018-12-17T23:30:54.495Z,99963.08
2018-12-17T23:33:42.713Z,99963.83
2018-12-17T23:36:25.705Z,99979.22
2018-12-17T23:38:58.126Z,99979.48
2018-12-17T23:41:29.646Z,99977.33
2018-12-17T23:44:07.782Z,99984.55
2018-12-17T23:47:01.406Z,99985.30
2018-12-17T23:49:38.391Z,99990.02
2018-12-17T23:52:17.766Z,99986.41
2018-12-17T23:54:52.271Z,99981.35
2018-12-17T23:57:32.870Z,99989.33
